Fishhead, Alabama
Current Conditions -  °F | °C
As of 2:53 PM on Thursday 23 Oct 2014 (Local Time) from KANB Reporting Station
Clear Clear  
Wind Chill: 69°   Ceiling: Unl
Heat Index: 69°   Visibility: 10mi
Dew Point: 38°   Wind: 0mph
Humidity: 32%   Direction: NA
Pressure: 30.06"   Gusts: NA
Location:  33.4483°N, 85.6826°W
Report Text: KANB 231953Z AUTO 00000KT 10SM CLR 21/03 A3006 RMK AO2 SLP181 T02060033
Loading
Personal Weather Stations






























Interactive Weather Map
Tropical Storm Tracking
New forecast layout! Learn more

10-Day Weather Forecast

Advertisements
Track Severe Weather on mobile